createdAt,value
2022-11-28T00:01:25.287Z,36.30
2022-11-28T00:03:52.747Z,37.67
2022-11-28T00:06:20.405Z,38.23
2022-11-28T00:08:47.587Z,36.77
2022-11-28T00:11:16.187Z,41.33
2022-11-28T00:13:43.985Z,34.90
2022-11-28T00:16:16.353Z,34.77
2022-11-28T00:18:43.677Z,34.83
2022-11-28T00:21:12.906Z,36.67
2022-11-28T00:23:41.034Z,36.73
2022-11-28T00:26:32.190Z,34.50
2022-11-28T00:29:01.330Z,37.47
2022-11-28T00:31:30.511Z,36.40
2022-11-28T00:33:58.063Z,33.57
2022-11-28T00:36:25.625Z,32.37
2022-11-28T00:38:52.630Z,34.40
2022-11-28T00:41:21.964Z,40.43
2022-11-28T00:43:50.359Z,30.50
2022-11-28T00:46:18.971Z,32.77
2022-11-28T00:48:46.294Z,33.43
2022-11-28T00:51:25.686Z,36.83
2022-11-28T00:53:54.630Z,36.23
2022-11-28T00:56:30.582Z,37.33
2022-11-28T00:58:58.081Z,32.30
2022-11-28T01:01:28.640Z,34.63
2022-11-28T01:03:57.455Z,37.10
2022-11-28T01:06:33.915Z,30.57
2022-11-28T01:09:02.548Z,34.07
2022-11-28T01:11:30.627Z,35.17
2022-11-28T01:14:00.550Z,33.10
2022-11-28T01:16:28.565Z,31.27
2022-11-28T01:18:55.701Z,37.30
2022-11-28T01:21:22.937Z,33.27
2022-11-28T01:23:50.419Z,37.87
2022-11-28T01:26:20.863Z,35.50
2022-11-28T01:28:48.460Z,33.20
2022-11-28T01:31:18.203Z,33.23
2022-11-28T01:33:45.511Z,29.17
2022-11-28T01:36:14.276Z,29.43
2022-11-28T01:38:41.961Z,31.37
2022-11-28T01:41:10.299Z,34.40
2022-11-28T01:43:38.097Z,35.17
2022-11-28T01:46:05.783Z,28.67
2022-11-28T01:48:38.358Z,28.27
2022-11-28T01:51:09.184Z,33.30
2022-11-28T01:53:40.977Z,35.17
2022-11-28T01:56:14.769Z,27.83
2022-11-28T01:58:45.767Z,32.70
2022-11-28T02:01:13.651Z,34.70
2022-11-28T02:03:47.142Z,27.77
2022-11-28T02:06:20.346Z,28.23
2022-11-28T02:08:50.530Z,29.40
2022-11-28T02:11:29.456Z,28.07
2022-11-28T02:14:08.545Z,31.97
2022-11-28T02:17:10.297Z,32.43
2022-11-28T02:19:49.071Z,26.80
2022-11-28T02:22:21.966Z,29.10
2022-11-28T02:25:04.618Z,31.07
2022-11-28T02:28:09.143Z,29.30
2022-11-28T02:31:03.973Z,28.47
2022-11-28T02:33:53.673Z,26.37
2022-11-28T02:36:32.421Z,26.87
2022-11-28T02:39:08.214Z,28.70
2022-11-28T02:41:43.237Z,28.90
2022-11-28T02:44:24.438Z,31.07
2022-11-28T02:47:16.252Z,27.27
2022-11-28T02:50:03.349Z,31.70
2022-11-28T02:52:39.770Z,23.00
2022-11-28T02:55:08.481Z,23.47
2022-11-28T02:57:38.702Z,22.93
2022-11-28T03:00:43.893Z,27.87
2022-11-28T03:03:16.744Z,25.07
2022-11-28T03:06:08.196Z,25.20
2022-11-28T03:08:47.120Z,27.60
2022-11-28T03:11:57.722Z,28.10
2022-11-28T03:14:49.868Z,27.03
2022-11-28T03:17:35.501Z,28.20
2022-11-28T03:20:08.418Z,29.00
2022-11-28T03:22:58.330Z,27.73
2022-11-28T03:25:38.650Z,30.47
2022-11-28T03:28:16.493Z,29.73
2022-11-28T03:30:55.312Z,25.37
2022-11-28T03:33:25.502Z,29.60
2022-11-28T03:35:59.518Z,27.40
2022-11-28T03:38:34.124Z,29.93
2022-11-28T03:41:08.188Z,31.67
2022-11-28T03:43:43.285Z,26.93
2022-11-28T03:46:15.387Z,24.03
2022-11-28T03:48:53.058Z,25.30
2022-11-28T03:51:40.052Z,27.43
2022-11-28T03:54:22.537Z,27.67
2022-11-28T03:57:23.614Z,29.73
2022-11-28T03:59:53.174Z,35.23
2022-11-28T04:02:31.192Z,42.10
2022-11-28T04:05:10.955Z,45.87
2022-11-28T04:07:57.030Z,42.30
2022-11-28T04:10:45.216Z,43.93
2022-11-28T04:13:23.900Z,46.70
2022-11-28T04:15:56.534Z,41.30
2022-11-28T04:18:32.482Z,48.20
2022-11-28T04:21:20.431Z,46.27
2022-11-28T04:23:49.344Z,40.30
2022-11-28T04:26:22.727Z,42.37
2022-11-28T04:28:51.915Z,42.47
2022-11-28T04:31:22.516Z,44.30
2022-11-28T04:33:53.127Z,46.63
2022-11-28T04:36:22.991Z,40.07
2022-11-28T04:38:56.573Z,40.93
2022-11-28T04:41:31.671Z,46.53
2022-11-28T04:44:05.043Z,43.13
2022-11-28T04:46:39.734Z,36.47
2022-11-28T04:49:07.080Z,37.67
2022-11-28T04:52:03.927Z,42.73
2022-11-28T04:54:51.858Z,39.90
2022-11-28T04:57:30.411Z,42.00
2022-11-28T04:59:58.245Z,39.63
2022-11-28T05:02:26.085Z,46.37
2022-11-28T05:04:55.678Z,44.97
2022-11-28T05:07:24.314Z,40.60
2022-11-28T05:09:51.816Z,42.87
2022-11-28T05:12:18.935Z,44.67
2022-11-28T05:14:45.926Z,45.37
2022-11-28T05:17:13.926Z,47.83
2022-11-28T05:19:40.896Z,45.07
2022-11-28T05:22:07.826Z,44.20
2022-11-28T05:24:34.909Z,42.10
2022-11-28T05:27:01.937Z,46.63
2022-11-28T05:29:28.951Z,43.47
2022-11-28T05:31:56.308Z,45.30
2022-11-28T05:34:23.305Z,42.50
2022-11-28T05:36:50.327Z,47.57
2022-11-28T05:39:17.587Z,44.03
2022-11-28T05:41:44.538Z,43.63
2022-11-28T05:44:11.478Z,41.17
2022-11-28T05:46:38.465Z,43.60
2022-11-28T05:49:05.496Z,48.63
2022-11-28T05:51:32.797Z,47.67
2022-11-28T05:53:59.806Z,49.50
2022-11-28T05:56:26.845Z,55.03
2022-11-28T05:58:54.371Z,47.30
2022-11-28T06:01:24.760Z,49.00
2022-11-28T06:03:58.098Z,52.27
2022-11-28T06:06:26.640Z,57.50
2022-11-28T06:08:53.755Z,48.83
2022-11-28T06:11:22.340Z,55.27
2022-11-28T06:13:50.490Z,52.37
2022-11-28T06:16:23.052Z,52.03
2022-11-28T06:18:54.966Z,54.27
2022-11-28T06:21:22.909Z,58.10
2022-11-28T06:23:50.172Z,50.83
2022-11-28T06:26:21.469Z,52.33
2022-11-28T06:28:49.367Z,48.90
2022-11-28T06:31:21.688Z,53.23
2022-11-28T06:33:49.316Z,53.50
2022-11-28T06:36:18.155Z,52.07
2022-11-28T06:38:45.203Z,52.40
2022-11-28T06:41:15.488Z,52.80
2022-11-28T06:43:42.931Z,54.60
2022-11-28T06:46:16.202Z,51.03
2022-11-28T06:48:44.630Z,50.60
2022-11-28T06:51:12.595Z,50.07
2022-11-28T06:53:40.539Z,51.13
2022-11-28T06:56:09.702Z,49.27
2022-11-28T06:58:37.199Z,49.77
2022-11-28T07:01:19.157Z,57.40
2022-11-28T07:03:46.864Z,48.90
2022-11-28T07:06:15.112Z,47.07
2022-11-28T07:08:42.779Z,48.10
2022-11-28T07:11:12.280Z,51.23
2022-11-28T07:13:40.304Z,45.73
2022-11-28T07:16:08.146Z,46.93
2022-11-28T07:18:35.621Z,46.03
2022-11-28T07:21:02.654Z,52.17
2022-11-28T07:23:29.742Z,50.27
2022-11-28T07:26:01.823Z,51.53
2022-11-28T07:28:30.147Z,52.10
2022-11-28T07:31:12.522Z,58.63
2022-11-28T07:33:44.143Z,52.93
2022-11-28T07:36:22.995Z,46.57
2022-11-28T07:38:52.735Z,49.37
2022-11-28T07:41:25.970Z,51.47
2022-11-28T07:43:56.049Z,51.23
2022-11-28T07:46:23.545Z,42.93
2022-11-28T07:48:50.733Z,51.25
2022-11-28T07:51:20.826Z,44.63
2022-11-28T07:53:48.877Z,44.07
2022-11-28T07:56:18.614Z,50.60
2022-11-28T07:58:46.725Z,49.50
2022-11-28T08:01:19.304Z,44.93
2022-11-28T08:03:47.234Z,50.83
2022-11-28T08:06:16.691Z,45.03
2022-11-28T08:08:45.591Z,49.27
2022-11-28T08:11:13.055Z,47.47
2022-11-28T08:13:40.625Z,47.23
2022-11-28T08:16:16.035Z,51.27
2022-11-28T08:18:43.507Z,49.93
2022-11-28T08:21:17.779Z,49.70
2022-11-28T08:23:45.570Z,47.13
2022-11-28T08:26:17.102Z,46.10
2022-11-28T08:28:44.735Z,53.40
2022-11-28T08:31:24.537Z,46.70
2022-11-28T08:33:53.275Z,50.13
2022-11-28T08:36:21.390Z,48.73
2022-11-28T08:39:03.258Z,44.13
2022-11-28T08:41:36.104Z,52.87
2022-11-28T08:44:03.077Z,41.80
2022-11-28T08:46:30.609Z,46.73
2022-11-28T08:48:57.618Z,49.03
2022-11-28T08:51:24.756Z,43.93
2022-11-28T08:53:59.112Z,38.53
2022-11-28T08:56:26.650Z,43.70
2022-11-28T08:58:54.171Z,43.90
2022-11-28T09:01:24.128Z,43.20
2022-11-28T09:03:52.227Z,56.67
2022-11-28T09:06:21.070Z,47.73
2022-11-28T09:08:49.130Z,46.43
2022-11-28T09:11:20.551Z,42.97
2022-11-28T09:13:47.866Z,42.67
2022-11-28T09:16:15.498Z,44.10
2022-11-28T09:18:42.716Z,43.80
2022-11-28T09:21:11.978Z,44.20
2022-11-28T09:23:41.195Z,45.23
2022-11-28T09:26:14.450Z,41.53
2022-11-28T09:28:41.889Z,43.93
2022-11-28T09:31:10.117Z,38.20
2022-11-28T09:33:37.175Z,45.50
2022-11-28T09:36:15.896Z,40.20
2022-11-28T09:38:42.927Z,47.07
2022-11-28T09:41:41.301Z,46.43
2022-11-28T09:44:20.180Z,40.90
2022-11-28T09:46:50.117Z,46.03
2022-11-28T09:49:27.229Z,45.73
2022-11-28T09:52:12.148Z,43.50
2022-11-28T09:55:02.140Z,49.77
2022-11-28T09:57:40.629Z,44.60
2022-11-28T10:00:22.776Z,45.17
2022-11-28T10:03:04.329Z,43.57
2022-11-28T10:05:46.400Z,45.47
2022-11-28T10:08:18.835Z,48.03
2022-11-28T10:11:16.461Z,41.17
2022-11-28T10:14:09.122Z,44.70
2022-11-28T10:17:10.214Z,43.70
2022-11-28T10:19:58.299Z,37.53
2022-11-28T10:22:39.982Z,40.17
2022-11-28T10:25:32.536Z,41.60
2022-11-28T10:27:59.636Z,40.23
2022-11-28T10:30:32.773Z,38.10
2022-11-28T10:33:19.262Z,42.23
2022-11-28T10:35:54.196Z,41.77
2022-11-28T10:38:25.941Z,40.60
2022-11-28T10:40:59.073Z,40.17
2022-11-28T10:43:54.775Z,37.97
2022-11-28T10:46:51.168Z,34.87
2022-11-28T10:49:21.003Z,35.37
2022-11-28T10:52:19.462Z,40.40
2022-11-28T10:54:59.167Z,31.87
2022-11-28T10:57:38.598Z,35.37
2022-11-28T11:00:14.114Z,28.57
2022-11-28T11:02:59.679Z,30.47
2022-11-28T11:05:32.513Z,26.50
2022-11-28T11:08:24.093Z,28.80
2022-11-28T11:10:57.960Z,23.50
2022-11-28T11:13:27.784Z,26.37
2022-11-28T11:16:04.791Z,25.07
2022-11-28T11:18:53.550Z,26.17
2022-11-28T11:21:21.788Z,27.67
2022-11-28T11:23:50.442Z,26.77
2022-11-28T11:26:27.398Z,29.40
2022-11-28T11:28:56.397Z,24.93
2022-11-28T11:31:30.918Z,26.13
2022-11-28T11:34:17.109Z,24.60
2022-11-28T11:36:44.723Z,22.30
2022-11-28T11:39:12.005Z,27.37
2022-11-28T11:41:42.214Z,26.87
2022-11-28T11:44:15.275Z,21.77
2022-11-28T11:46:51.897Z,20.53
2022-11-28T11:49:32.445Z,26.07
2022-11-28T11:52:03.909Z,25.47
2022-11-28T11:54:30.964Z,22.73
2022-11-28T11:57:25.095Z,26.90
2022-11-28T11:59:52.876Z,20.50
2022-11-28T12:02:41.076Z,20.50
2022-11-28T12:05:18.973Z,19.53
2022-11-28T12:07:58.790Z,16.77
2022-11-28T12:10:29.858Z,17.67
2022-11-28T12:12:57.344Z,19.33
2022-11-28T12:15:55.629Z,16.23
2022-11-28T12:18:52.689Z,19.50
2022-11-28T12:21:28.292Z,16.30
2022-11-28T12:24:10.009Z,16.70
2022-11-28T12:27:14.830Z,13.80
2022-11-28T12:30:33.427Z,15.67
2022-11-28T12:33:14.600Z,16.43
2022-11-28T12:35:42.938Z,16.97
2022-11-28T12:38:28.963Z,14.13
2022-11-28T12:40:56.015Z,17.87
2022-11-28T12:43:44.039Z,15.97
2022-11-28T12:46:14.164Z,14.80
2022-11-28T12:49:09.379Z,16.23
2022-11-28T12:51:43.669Z,17.53
2022-11-28T12:54:29.610Z,13.27
2022-11-28T12:57:08.068Z,13.23
2022-11-28T13:00:03.438Z,13.93
2022-11-28T13:02:50.469Z,12.43
2022-11-28T13:06:02.654Z,17.07
2022-11-28T13:08:48.259Z,16.30
2022-11-28T13:11:26.648Z,14.10
2022-11-28T13:13:58.822Z,12.47
2022-11-28T13:16:48.994Z,16.30
2022-11-28T13:19:26.659Z,15.60
2022-11-28T13:21:59.843Z,15.17
2022-11-28T13:24:32.991Z,13.73
2022-11-28T13:27:22.189Z,15.43
2022-11-28T13:29:49.185Z,12.13
2022-11-28T13:32:54.772Z,16.17
2022-11-28T13:35:22.498Z,16.33
2022-11-28T13:41:04.955Z,14.67
2022-11-28T13:43:50.120Z,16.23
2022-11-28T13:46:17.544Z,14.90
2022-11-28T13:51:33.732Z,15.87
2022-11-28T13:54:26.966Z,17.63
2022-11-28T13:57:21.762Z,15.03
2022-11-28T13:59:59.531Z,15.43
2022-11-28T14:02:50.412Z,17.70
2022-11-28T14:05:27.492Z,17.90
2022-11-28T14:07:56.460Z,15.83
2022-11-28T14:10:34.618Z,20.77
2022-11-28T14:13:23.293Z,15.07
2022-11-28T14:15:59.791Z,17.77
2022-11-28T14:18:57.729Z,15.17
2022-11-28T14:21:28.381Z,15.00
2022-11-28T14:24:10.415Z,13.33
2022-11-28T14:26:40.490Z,15.43
2022-11-28T14:29:24.797Z,17.27
2022-11-28T14:32:21.777Z,16.03
2022-11-28T14:34:48.677Z,15.73
2022-11-28T14:37:21.920Z,17.33
2022-11-28T14:39:50.221Z,15.27
2022-11-28T14:42:43.896Z,14.47
2022-11-28T14:45:32.671Z,19.23
2022-11-28T14:48:24.502Z,14.90
2022-11-28T14:51:00.551Z,14.10
2022-11-28T14:53:36.999Z,14.60
2022-11-28T14:56:14.925Z,19.83
2022-11-28T14:58:49.777Z,15.47
2022-11-28T15:01:40.987Z,18.73
2022-11-28T15:05:05.686Z,24.10
2022-11-28T15:08:10.444Z,19.63
2022-11-28T15:10:53.177Z,17.20
2022-11-28T15:13:23.116Z,19.53
2022-11-28T15:15:53.406Z,18.87
2022-11-28T15:18:23.710Z,18.90
2022-11-28T15:21:05.291Z,16.27
2022-11-28T15:23:35.460Z,16.07
2022-11-28T15:26:03.570Z,17.20
2022-11-28T15:28:33.992Z,19.23
2022-11-28T15:31:04.095Z,15.70
2022-11-28T15:33:32.141Z,15.73
2022-11-28T15:36:24.831Z,17.87
2022-11-28T15:38:52.150Z,16.93
2022-11-28T15:41:27.348Z,17.67
2022-11-28T15:43:56.488Z,15.80
2022-11-28T15:46:33.749Z,18.00
2022-11-28T15:49:05.186Z,18.87
2022-11-28T15:51:35.083Z,16.43
2022-11-28T15:54:11.935Z,16.93
2022-11-28T15:56:57.198Z,14.37
2022-11-28T15:59:24.203Z,14.50
2022-11-28T16:01:59.024Z,15.10
2022-11-28T16:04:27.258Z,16.37
2022-11-28T16:06:57.749Z,17.57
2022-11-28T16:09:26.882Z,15.83
2022-11-28T16:11:54.970Z,19.87
2022-11-28T16:14:27.383Z,19.40
2022-11-28T16:17:00.697Z,20.93
2022-11-28T16:19:37.140Z,19.17
2022-11-28T16:22:19.729Z,20.90
2022-11-28T16:24:55.446Z,19.33
2022-11-28T16:27:37.322Z,21.20
2022-11-28T16:30:29.440Z,19.23
2022-11-28T16:32:57.032Z,17.77
2022-11-28T16:35:28.860Z,18.20
2022-11-28T16:38:20.937Z,19.73
2022-11-28T16:40:48.265Z,19.40
2022-11-28T16:43:23.972Z,21.07
2022-11-28T16:46:01.543Z,20.33
2022-11-28T16:48:32.430Z,24.03
2022-11-28T16:51:02.503Z,18.50
2022-11-28T16:53:41.697Z,21.00
2022-11-28T16:56:30.703Z,20.23
2022-11-28T16:59:09.517Z,24.27
2022-11-28T17:01:37.102Z,30.70
2022-11-28T17:04:05.100Z,33.67
2022-11-28T17:06:36.905Z,23.47
2022-11-28T17:09:11.661Z,26.27
2022-11-28T17:11:44.034Z,26.20
2022-11-28T17:14:13.899Z,30.23
2022-11-28T17:16:42.431Z,27.50
2022-11-28T17:19:09.651Z,26.30
2022-11-28T17:21:40.902Z,26.97
2022-11-28T17:24:24.279Z,30.07
2022-11-28T17:26:53.219Z,23.27
2022-11-28T17:29:21.181Z,27.87
2022-11-28T17:31:49.143Z,23.03
2022-11-28T17:34:33.223Z,32.30
2022-11-28T17:37:01.724Z,21.63
2022-11-28T17:39:29.072Z,24.60
2022-11-28T17:41:58.681Z,24.90
2022-11-28T17:44:37.687Z,24.70
2022-11-28T17:47:05.189Z,27.97
2022-11-28T17:49:32.824Z,23.80
2022-11-28T17:51:59.955Z,28.03
2022-11-28T17:54:27.508Z,21.93
2022-11-28T17:56:55.173Z,23.80
2022-11-28T17:59:23.972Z,24.00
2022-11-28T18:01:51.159Z,23.27
2022-11-28T18:04:24.119Z,21.00
2022-11-28T18:06:51.259Z,21.97
2022-11-28T18:09:18.208Z,36.37
2022-11-28T18:11:46.831Z,30.03
2022-11-28T18:14:14.638Z,29.50
2022-11-28T18:16:43.993Z,24.93
2022-11-28T18:19:11.292Z,26.27
2022-11-28T18:21:38.960Z,22.40
2022-11-28T18:24:06.443Z,21.80
2022-11-28T18:26:33.618Z,24.40
2022-11-28T18:29:00.768Z,23.97
2022-11-28T18:31:29.922Z,27.53
2022-11-28T18:34:02.270Z,21.20
2022-11-28T18:36:34.680Z,25.87
2022-11-28T18:39:04.670Z,26.07
2022-11-28T18:41:32.577Z,25.27
2022-11-28T18:44:04.710Z,23.53
2022-11-28T18:46:33.544Z,22.33
2022-11-28T18:49:01.647Z,22.30
2022-11-28T18:51:34.364Z,23.87
2022-11-28T18:54:04.595Z,31.17
2022-11-28T18:56:33.396Z,25.57
2022-11-28T18:59:00.734Z,30.00
2022-11-28T19:01:31.077Z,29.43
2022-11-28T19:04:00.393Z,31.40
2022-11-28T19:06:28.750Z,26.70
2022-11-28T19:08:57.869Z,22.80
2022-11-28T19:11:25.737Z,29.53
2022-11-28T19:13:53.583Z,26.27
2022-11-28T19:16:30.136Z,26.23
2022-11-28T19:18:57.882Z,30.53
2022-11-28T19:21:27.975Z,24.60
2022-11-28T19:23:56.945Z,29.97
2022-11-28T19:26:26.281Z,31.70
2022-11-28T19:28:54.163Z,27.60
2022-11-28T19:31:29.559Z,29.90
2022-11-28T19:34:01.239Z,28.60
2022-11-28T19:36:33.579Z,30.63
2022-11-28T19:39:01.063Z,29.83
2022-11-28T19:41:29.877Z,30.67
2022-11-28T19:43:57.888Z,24.73
2022-11-28T19:46:29.208Z,30.23
2022-11-28T19:48:59.224Z,27.73
2022-11-28T19:51:26.177Z,28.63
2022-11-28T19:53:56.259Z,26.43
2022-11-28T19:56:27.151Z,25.07
2022-11-28T19:58:54.652Z,26.13
2022-11-28T20:01:24.087Z,27.77
2022-11-28T20:03:53.908Z,25.30
2022-11-28T20:06:30.547Z,25.20
2022-11-28T20:09:08.258Z,27.97
2022-11-28T20:11:38.646Z,24.50
2022-11-28T20:14:08.367Z,23.23
2022-11-28T20:16:36.947Z,28.43
2022-11-28T20:19:05.402Z,23.17
2022-11-28T20:21:34.161Z,23.23
2022-11-28T20:24:04.720Z,23.67
2022-11-28T20:26:37.675Z,24.53
2022-11-28T20:29:05.858Z,23.23
2022-11-28T20:31:37.144Z,23.27
2022-11-28T20:34:06.085Z,24.67
2022-11-28T20:36:33.745Z,22.87
2022-11-28T20:39:01.955Z,25.77
2022-11-28T20:41:29.619Z,25.60
2022-11-28T20:43:58.571Z,24.07
2022-11-28T20:46:30.758Z,25.20
2022-11-28T20:48:59.899Z,23.07
2022-11-28T20:51:29.030Z,22.07
2022-11-28T20:53:58.360Z,20.47
2022-11-28T20:56:31.972Z,25.33
2022-11-28T20:59:00.880Z,24.03
2022-11-28T21:01:31.007Z,19.77
2022-11-28T21:03:58.494Z,27.87
2022-11-28T21:06:25.513Z,23.33
2022-11-28T21:08:52.484Z,24.43
2022-11-28T21:11:50.131Z,26.40
2022-11-28T21:14:08.870Z,21.47
2022-11-28T21:16:36.224Z,25.30
2022-11-28T21:19:06.024Z,23.57
2022-11-28T21:21:34.385Z,23.33
2022-11-28T21:24:08.398Z,29.43
2022-11-28T21:26:41.024Z,23.43
2022-11-28T21:29:12.564Z,27.77
2022-11-28T21:31:44.504Z,28.97
2022-11-28T21:34:14.509Z,26.13
2022-11-28T21:36:42.683Z,32.80
2022-11-28T21:39:18.771Z,23.90
2022-11-28T21:41:46.409Z,25.13
2022-11-28T21:44:13.721Z,23.83
2022-11-28T21:46:40.750Z,23.67
2022-11-28T21:49:07.849Z,24.33
2022-11-28T21:51:39.200Z,22.63
2022-11-28T21:54:06.418Z,28.87
2022-11-28T21:56:33.983Z,22.90
2022-11-28T21:59:01.204Z,24.87
2022-11-28T22:01:28.706Z,27.10
2022-11-28T22:04:02.139Z,25.27
2022-11-28T22:06:29.948Z,23.17
2022-11-28T22:08:57.454Z,23.03
2022-11-28T22:11:24.822Z,31.27
2022-11-28T22:13:52.898Z,29.73
2022-11-28T22:16:26.338Z,29.10
2022-11-28T22:18:55.055Z,24.93
2022-11-28T22:21:51.479Z,25.00
2022-11-28T22:24:09.330Z,24.40
2022-11-28T22:26:36.522Z,25.50
2022-11-28T22:29:04.347Z,25.20
2022-11-28T22:31:32.968Z,26.57
2022-11-28T22:34:00.457Z,23.90
2022-11-28T22:36:28.437Z,27.07
2022-11-28T22:38:57.212Z,24.07
2022-11-28T22:41:29.012Z,27.17
2022-11-28T22:44:00.890Z,27.30
2022-11-28T22:46:30.064Z,23.17
2022-11-28T22:49:02.743Z,31.50
2022-11-28T22:51:31.158Z,31.97
2022-11-28T22:54:00.460Z,29.40
2022-11-28T22:56:30.539Z,29.37
2022-11-28T22:58:58.974Z,26.77
2022-11-28T23:01:29.744Z,33.70
2022-11-28T23:03:57.775Z,25.33
2022-11-28T23:06:30.689Z,24.90
2022-11-28T23:08:59.739Z,27.17
2022-11-28T23:11:30.945Z,27.37
2022-11-28T23:13:59.642Z,27.60
2022-11-28T23:16:29.640Z,27.47
2022-11-28T23:18:59.560Z,25.50
2022-11-28T23:21:30.217Z,30.37
2022-11-28T23:23:57.459Z,26.73
2022-11-28T23:26:28.267Z,29.73
2022-11-28T23:28:55.677Z,28.17
2022-11-28T23:31:25.334Z,31.13
2022-11-28T23:33:54.645Z,25.20
2022-11-28T23:36:40.047Z,26.77
2022-11-28T23:39:26.904Z,28.60
2022-11-28T23:42:03.457Z,24.03
2022-11-28T23:44:30.459Z,27.13
2022-11-28T23:46:57.452Z,27.47
2022-11-28T23:49:24.399Z,28.23
2022-11-28T23:51:51.443Z,35.40
2022-11-28T23:54:18.667Z,27.37
2022-11-28T23:56:45.762Z,30.27
2022-11-28T23:59:13.458Z,26.87
